Time;durP1;ratioP1;P1;durP2;ratioP2;P2;SDS_P1;SDS_P2;PMS_P1;PMS_P2;Temp;Humidity;BMP_temperature;BMP_pressure;BME280_temperature;BME280_humidity;BME280_pressure;Samples;Min_cycle;Max_cycle;Signal;HPM_P1;HPM_P2
2022/01/08 00:02:07;;;;;;;17.88;10.27;;;;;;;1.84;89.40;101063.50;5038473;28;20033;-67
2022/01/08 00:04:33;;;;;;;19.63;10.70;;;;;;;1.83;89.31;101059.22;5037363;22;20016;-78
2022/01/08 00:06:58;;;;;;;22.02;12.05;;;;;;;1.76;89.50;101053.84;5038819;28;20037;-78
2022/01/08 00:09:24;;;;;;;21.50;10.60;;;;;;;1.76;89.48;101040.63;5023153;28;20033;-79
2022/01/08 00:11:49;;;;;;;22.55;11.63;;;;;;;1.82;89.53;101050.47;5044045;28;20103;-79
2022/01/08 00:14:15;;;;;;;22.30;10.95;;;;;;;1.76;89.33;101041.44;5023084;28;20018;-79
2022/01/08 00:16:41;;;;;;;17.52;10.27;;;;;;;1.77;89.15;101042.25;5039919;28;20030;-79
2022/01/08 00:19:07;;;;;;;16.92;10.23;;;;;;;1.72;89.66;101040.19;5027168;28;20033;-78
2022/01/08 00:21:33;;;;;;;19.20;10.65;;;;;;;1.68;89.59;101041.56;5025041;28;20037;-78
2022/01/08 00:23:59;;;;;;;20.85;10.10;;;;;;;1.72;89.74;101040.19;5026077;28;20040;-79
2022/01/08 00:26:25;;;;;;;19.40;10.43;;;;;;;1.71;89.52;101041.19;5028766;28;20054;-79
2022/01/08 00:28:51;;;;;;;21.45;11.25;;;;;;;1.67;89.69;101037.28;5034490;28;20568;-79
2022/01/08 00:31:16;;;;;;;19.73;10.80;;;;;;;1.69;89.77;101040.56;5036644;28;21168;-78
2022/01/08 00:33:42;;;;;;;18.50;11.45;;;;;;;1.76;89.79;101048.56;5024942;28;20090;-80
2022/01/08 00:36:08;;;;;;;21.52;11.35;;;;;;;1.80;88.94;101034.00;5042744;28;20032;-78
2022/01/08 00:38:34;;;;;;;19.48;11.05;;;;;;;1.80;89.22;101026.06;5029723;28;20025;-79
2022/01/08 00:41:00;;;;;;;22.20;11.20;;;;;;;1.85;88.83;101028.97;5028843;28;20033;-79
2022/01/08 00:43:25;;;;;;;20.98;11.18;;;;;;;1.82;89.06;101024.06;5026590;28;20105;-78
2022/01/08 00:45:51;;;;;;;18.55;10.15;;;;;;;1.85;89.06;101031.63;5025021;28;20396;-78
2022/01/08 00:48:17;;;;;;;19.77;10.50;;;;;;;1.81;88.84;101036.47;5027008;28;20037;-78
2022/01/08 00:50:43;;;;;;;17.70;10.07;;;;;;;1.86;88.59;101035.91;5041715;28;20033;-78
2022/01/08 00:53:08;;;;;;;19.23;10.27;;;;;;;1.88;88.33;101033.06;5022574;28;20029;-78
2022/01/08 00:55:34;;;;;;;20.05;10.75;;;;;;;1.82;88.30;101032.00;5040485;28;20045;-79
2022/01/08 00:57:59;;;;;;;20.88;10.65;;;;;;;1.77;88.52;101036.97;5031568;28;20738;-78
2022/01/08 01:00:25;;;;;;;19.67;10.93;;;;;;;1.81;88.52;101033.00;5024234;28;20621;-78
2022/01/08 01:02:50;;;;;;;19.95;10.85;;;;;;;1.85;88.93;101018.41;5043577;28;20040;-78
2022/01/08 01:05:16;;;;;;;19.95;12.00;;;;;;;1.88;88.47;101023.31;5042751;28;20032;-78
2022/01/08 01:07:42;;;;;;;18.23;10.30;;;;;;;1.92;88.46;101014.00;5042855;28;20033;-80
2022/01/08 01:10:08;;;;;;;19.08;10.98;;;;;;;1.98;88.24;101018.56;5027560;28;20034;-79
2022/01/08 01:12:35;;;;;;;20.15;11.18;;;;;;;1.97;87.97;101022.19;5024475;28;20045;-78
2022/01/08 01:15:02;;;;;;;16.80;9.50;;;;;;;1.98;88.03;101017.75;5028150;28;20033;-78
2022/01/08 01:17:27;;;;;;;17.40;10.20;;;;;;;2.00;88.37;101021.84;5020829;28;20117;-78
2022/01/08 01:19:53;;;;;;;17.20;10.02;;;;;;;2.05;87.77;101019.47;5030366;28;20463;-80
2022/01/08 01:22:22;;;;;;;16.77;10.52;;;;;;;2.09;87.39;101018.06;5022054;28;20087;-79
2022/01/08 01:24:49;;;;;;;19.38;10.80;;;;;;;2.09;87.13;101018.06;5040886;28;20029;-79
2022/01/08 01:30:07;;;;;;;18.55;10.30;;;;;;;2.16;86.80;101022.66;5028942;28;20103;-79
2022/01/08 01:48:38;;;;;;;17.25;10.73;;;;;;;2.09;86.10;100961.75;5032936;28;20099;-78
2022/01/08 01:51:04;;;;;;;22.05;10.57;;;;;;;2.04;86.21;100959.69;5044977;28;20033;-79
2022/01/08 01:53:29;;;;;;;17.98;10.57;;;;;;;2.01;86.51;100972.47;5029797;28;20025;-79
2022/01/08 01:55:55;;;;;;;15.77;11.05;;;;;;;1.98;86.55;100968.38;5045605;28;20498;-78
2022/01/08 01:58:20;;;;;;;20.25;11.00;;;;;;;1.95;86.59;100976.63;5047129;28;20056;-79
2022/01/08 02:00:49;;;;;;;18.80;10.48;;;;;;;1.91;86.73;100970.09;5044707;28;20032;-79
2022/01/08 02:03:15;;;;;;;17.05;10.43;;;;;;;1.90;87.07;100965.81;5033049;28;20032;-79
2022/01/08 02:05:40;;;;;;;18.05;10.35;;;;;;;1.80;87.30;100958.19;5034288;28;20077;-79
2022/01/08 02:08:06;;;;;;;17.73;10.45;;;;;;;1.76;87.54;100951.63;5049597;28;20037;-80
2022/01/08 02:10:31;;;;;;;17.38;10.00;;;;;;;1.73;87.55;100959.09;5063217;28;20025;-80
2022/01/08 02:12:57;;;;;;;18.98;10.20;;;;;;;1.61;88.26;100960.56;5034727;28;20517;-80
2022/01/08 02:15:22;;;;;;;20.08;10.45;;;;;;;1.58;88.40;100953.03;5031266;28;20021;-78
2022/01/08 02:17:48;;;;;;;19.52;10.30;;;;;;;1.55;88.98;100953.41;5033527;28;20018;-78
2022/01/08 02:20:13;;;;;;;18.63;10.32;;;;;;;1.46;89.39;100950.88;5030635;28;20025;-78
2022/01/08 02:22:39;;;;;;;18.00;9.93;;;;;;;1.46;89.22;100948.22;5048338;28;20020;-79
2022/01/08 02:25:05;;;;;;;17.38;9.88;;;;;;;1.38;90.05;100942.22;5047519;28;20498;-78
2022/01/08 02:27:30;;;;;;;17.17;9.85;;;;;;;1.32;90.25;100945.59;5047607;28;20112;-78
2022/01/08 02:29:56;;;;;;;19.05;10.57;;;;;;;1.21;90.56;100947.66;5031888;28;20037;-81
2022/01/08 02:32:27;;;;;;;16.90;9.43;;;;;;;1.15;91.07;100947.59;5023797;28;20021;-78
2022/01/08 02:34:53;;;;;;;20.83;11.55;;;;;;;1.12;91.51;100942.69;5025316;28;20640;-80
2022/01/08 02:37:25;;;;;;;20.83;10.10;;;;;;;1.05;91.73;100950.47;5020997;28;20029;-80
2022/01/08 02:39:50;;;;;;;22.83;10.70;;;;;;;0.98;92.21;100939.03;5043096;28;20030;-78
2022/01/08 02:42:20;;;;;;;17.23;10.25;;;;;;;0.99;92.63;100934.56;5037759;28;20026;-79
2022/01/08 02:44:48;;;;;;;19.58;11.35;;;;;;;1.04;92.56;100929.56;5028311;28;20013;-81
2022/01/08 02:47:15;;;;;;;17.10;10.05;;;;;;;1.05;92.29;100925.91;5029710;28;20061;-79
2022/01/08 02:49:41;;;;;;;20.58;10.10;;;;;;;1.10;92.14;100934.13;5042164;28;20116;-78
2022/01/08 02:52:07;;;;;;;19.08;10.52;;;;;;;1.08;92.13;100925.59;5031628;28;20068;-79
2022/01/08 02:54:33;;;;;;;21.67;11.35;;;;;;;1.05;92.23;100928.56;5029280;28;20013;-78
2022/01/08 02:56:59;;;;;;;18.88;9.88;;;;;;;1.02;92.45;100926.28;5047054;28;20635;-79
2022/01/08 02:59:25;;;;;;;24.83;10.68;;;;;;;1.02;92.46;100931.56;5027656;28;20033;-78
2022/01/08 03:01:53;;;;;;;20.35;11.60;;;;;;;0.97;92.92;100929.47;5044394;28;20029;-79
2022/01/08 03:04:18;;;;;;;21.00;10.63;;;;;;;1.06;92.81;100922.28;5043820;28;20017;-79
2022/01/08 03:06:44;;;;;;;19.90;10.88;;;;;;;1.06;92.55;100919.63;5028593;28;20040;-78
2022/01/08 03:09:09;;;;;;;18.80;10.05;;;;;;;1.02;93.25;100923.66;5040095;28;20063;-78
2022/01/08 03:11:35;;;;;;;16.55;9.75;;;;;;;1.05;93.38;100926.72;5025819;28;20029;-78
2022/01/08 03:14:01;;;;;;;16.45;9.52;;;;;;;1.06;93.51;100923.09;5023548;28;20025;-78
2022/01/08 03:16:26;;;;;;;18.73;10.25;;;;;;;1.09;93.47;100930.66;5025778;28;20099;-79
2022/01/08 03:18:52;;;;;;;17.45;9.15;;;;;;;1.12;93.24;100927.66;5038491;22;20072;-69
2022/01/08 03:21:20;;;;;;;16.02;9.52;;;;;;;1.21;92.88;100928.38;5018624;28;20368;-69
2022/01/08 03:23:54;;;;;;;15.63;9.23;;;;;;;1.26;92.47;100918.13;5022974;28;20033;-67
2022/01/08 03:26:22;;;;;;;16.15;9.15;;;;;;;1.34;92.28;100917.19;5021201;28;20080;-70
2022/01/08 03:28:49;;;;;;;16.45;9.80;;;;;;;1.36;91.82;100913.34;5024298;28;20021;-69
2022/01/08 03:31:16;;;;;;;15.45;9.75;;;;;;;1.41;91.81;100910.97;5018508;28;20395;-69
2022/01/08 03:33:42;;;;;;;15.95;9.48;;;;;;;1.43;91.62;100911.59;5017585;28;20049;-68
2022/01/08 03:36:09;;;;;;;17.90;9.40;;;;;;;1.41;91.52;100913.63;5019564;28;20036;-68
2022/01/08 03:38:34;;;;;;;18.17;9.82;;;;;;;1.44;91.65;100915.09;5019529;28;20022;-68
2022/01/08 03:41:00;;;;;;;15.40;9.90;;;;;;;1.43;91.37;100908.97;5019211;28;20037;-68
2022/01/08 03:43:26;;;;;;;19.20;10.60;;;;;;;1.44;91.02;100912.44;5019461;28;20092;-69
2022/01/08 03:45:51;;;;;;;16.50;11.15;;;;;;;1.42;91.27;100907.31;5019040;28;20385;-67
2022/01/08 03:50:44;;;;;;;16.50;9.68;;;;;;;1.44;91.23;100904.53;5020368;28;20036;-70
2022/01/08 03:53:09;;;;;;;17.05;10.52;;;;;;;1.43;91.43;100906.31;5018681;28;20059;-68
2022/01/08 03:55:35;;;;;;;15.82;9.55;;;;;;;1.44;91.22;100905.34;5020296;28;20022;-68
2022/01/08 03:58:00;;;;;;;16.45;9.70;;;;;;;1.46;91.02;100908.63;5020122;28;20021;-68
2022/01/08 04:00:26;;;;;;;15.40;9.38;;;;;;;1.49;91.07;100907.44;5022357;28;20029;-68
2022/01/08 04:02:53;;;;;;;18.65;10.13;;;;;;;1.50;90.85;100904.59;5018453;28;20055;-69
2022/01/08 04:05:19;;;;;;;17.02;9.90;;;;;;;1.54;90.72;100904.22;5020267;28;20018;-68
2022/01/08 04:07:45;;;;;;;18.75;10.48;;;;;;;1.58;90.76;100905.50;5015115;28;20030;-68
2022/01/08 04:10:11;;;;;;;17.02;10.25;;;;;;;1.62;90.56;100901.50;5022143;28;20522;-67
2022/01/08 04:12:45;;;;;;;18.17;11.00;;;;;;;1.63;90.18;100898.66;5020565;28;20525;-67
2022/01/08 04:17:51;;;;;;;19.55;10.73;;;;;;;1.66;90.25;100900.13;5022217;28;20059;-67
2022/01/08 04:20:17;;;;;;;17.45;10.93;;;;;;;1.65;90.47;100898.47;5023767;28;20134;-68
2022/01/08 04:22:45;;;;;;;18.25;10.02;;;;;;;1.61;90.43;100898.00;5021263;28;20056;-68
2022/01/08 04:25:11;;;;;;;17.58;10.73;;;;;;;1.61;90.49;100899.84;5021112;28;20017;-68
2022/01/08 04:27:36;;;;;;;17.58;9.98;;;;;;;1.63;90.42;100911.06;5021545;28;20639;-68
2022/01/08 04:30:03;;;;;;;14.93;9.85;;;;;;;1.64;90.21;100895.03;5038085;28;20116;-69
2022/01/08 04:32:29;;;;;;;20.08;11.35;;;;;;;1.66;90.23;100890.38;5020071;28;20064;-68
2022/01/08 04:34:54;;;;;;;16.85;10.70;;;;;;;1.68;90.36;100890.19;5036332;28;20017;-67
2022/01/08 04:37:20;;;;;;;16.98;9.75;;;;;;;1.68;90.00;100883.06;5020506;28;20025;-71
2022/01/08 04:39:45;;;;;;;18.65;11.77;;;;;;;1.67;90.29;100881.44;5022987;28;20494;-69
2022/01/08 04:42:11;;;;;;;19.15;10.65;;;;;;;1.66;90.25;100890.38;5017178;28;20091;-68
2022/01/08 04:44:36;;;;;;;17.15;10.60;;;;;;;1.66;90.14;100892.19;5017238;28;20025;-68
2022/01/08 04:47:02;;;;;;;18.80;10.98;;;;;;;1.68;90.05;100893.63;5020760;28;20129;-68
2022/01/08 04:49:28;;;;;;;17.40;10.98;;;;;;;1.71;90.15;100895.09;5021005;28;20109;-69
2022/01/08 04:51:54;;;;;;;18.67;10.88;;;;;;;1.70;90.04;100896.09;5022350;28;20434;-69
2022/01/08 04:54:20;;;;;;;18.38;10.68;;;;;;;1.73;89.86;100901.00;5040189;28;20033;-71
2022/01/08 04:56:46;;;;;;;18.95;10.27;;;;;;;1.75;90.12;100912.19;5036940;28;20120;-69
2022/01/08 04:59:12;;;;;;;20.95;11.32;;;;;;;1.76;90.03;100897.97;5023291;28;20116;-69
2022/01/08 05:01:37;;;;;;;20.30;12.45;;;;;;;1.80;90.05;100901.91;5021200;28;20136;-69
2022/01/08 05:04:03;;;;;;;17.40;10.48;;;;;;;1.81;90.20;100909.66;5027899;28;20075;-68
2022/01/08 05:06:29;;;;;;;18.25;10.10;;;;;;;1.83;89.95;100908.63;5020459;28;20092;-69
2022/01/08 05:08:54;;;;;;;17.58;10.80;;;;;;;1.80;89.91;100912.47;5022498;28;20033;-70
2022/01/08 05:11:20;;;;;;;17.85;10.30;;;;;;;1.81;89.97;100922.03;5023726;28;20722;-70
2022/01/08 05:13:46;;;;;;;15.73;9.50;;;;;;;1.80;90.28;100915.13;5022213;28;20047;-68
2022/01/08 05:16:11;;;;;;;17.83;11.38;;;;;;;1.79;89.94;100913.44;5020174;28;20034;-70
2022/01/08 05:18:38;;;;;;;23.63;12.35;;;;;;;1.73;90.24;100930.88;5021595;28;20052;-68
2022/01/08 05:21:46;;;;;;;20.38;11.15;;;;;;;1.79;89.83;100926.66;5023326;28;20033;-68
2022/01/08 05:23:54;;;;;;;17.63;10.05;;;;;;;1.82;89.66;100918.38;5014052;28;20394;-68
2022/01/08 05:26:20;;;;;;;20.10;11.57;;;;;;;1.82;90.03;100934.25;5021217;28;20056;-70
2022/01/08 05:28:45;;;;;;;22.95;10.88;;;;;;;1.81;89.67;100936.06;5020721;28;20053;-70
2022/01/08 05:31:15;;;;;;;17.65;10.52;;;;;;;1.85;89.92;100943.59;5020577;28;20310;-69
2022/01/08 05:33:40;;;;;;;19.75;10.35;;;;;;;1.84;90.23;100936.69;5021792;28;20106;-68
2022/01/08 05:36:06;;;;;;;18.15;10.63;;;;;;;1.88;90.07;100925.56;5017944;28;20033;-68
2022/01/08 05:38:32;;;;;;;18.52;10.65;;;;;;;1.90;89.67;100928.81;5020047;28;20029;-69
2022/01/08 05:40:57;;;;;;;19.17;9.90;;;;;;;1.88;89.99;100933.47;5020491;28;20120;-71
2022/01/08 05:43:23;;;;;;;23.85;10.70;;;;;;;1.93;89.77;100935.56;5021038;28;20224;-68
2022/01/08 05:45:48;;;;;;;19.42;10.70;;;;;;;1.94;89.49;100942.47;5020676;28;20108;-69
2022/01/08 05:48:14;;;;;;;16.90;9.95;;;;;;;1.93;89.89;100954.88;5022642;28;20056;-70
2022/01/08 05:50:40;;;;;;;18.88;10.48;;;;;;;1.94;89.50;100947.75;5038154;28;20113;-68
2022/01/08 05:53:06;;;;;;;16.90;9.60;;;;;;;1.94;89.57;100958.34;5017852;28;20026;-68
2022/01/08 05:55:31;;;;;;;19.15;10.32;;;;;;;1.97;89.57;100961.41;5019176;28;20022;-68
2022/01/08 05:57:57;;;;;;;19.70;10.80;;;;;;;1.94;89.54;100961.78;5020499;28;20025;-71
2022/01/08 06:00:23;;;;;;;16.38;9.57;;;;;;;1.91;89.80;100954.25;5023144;28;20029;-69
2022/01/08 06:02:48;;;;;;;13.55;7.97;;;;;;;1.79;90.25;100959.19;5039155;28;20387;-70
2022/01/08 06:05:14;;;;;;;15.52;8.75;;;;;;;1.74;90.16;100958.09;5022167;28;20034;-69
2022/01/08 06:07:39;;;;;;;15.48;8.27;;;;;;;1.76;90.41;100962.19;5015601;28;20048;-71
2022/01/08 06:10:05;;;;;;;13.82;8.10;;;;;;;1.80;90.37;100963.50;5022764;28;20287;-68
2022/01/08 06:12:31;;;;;;;11.50;7.00;;;;;;;1.76;89.88;100962.19;5022187;28;20036;-69
2022/01/08 06:14:56;;;;;;;12.48;7.20;;;;;;;1.81;89.80;100970.41;5021842;28;20029;-70
2022/01/08 06:17:22;;;;;;;11.10;7.20;;;;;;;1.73;89.86;100972.31;5020720;28;20387;-68
2022/01/08 06:19:48;;;;;;;14.50;7.55;;;;;;;1.83;89.73;100964.13;5024613;28;20025;-68
2022/01/08 06:22:14;;;;;;;11.98;6.85;;;;;;;1.77;89.86;100961.19;5025241;28;20033;-69
2022/01/08 06:24:40;;;;;;;12.38;6.93;;;;;;;1.86;89.68;100964.56;5026279;28;20029;-70
2022/01/08 06:27:06;;;;;;;12.27;6.38;;;;;;;1.91;89.46;100959.53;5024621;28;20106;-69
2022/01/08 06:29:31;;;;;;;14.10;7.22;;;;;;;1.84;89.37;100963.94;5024906;28;20040;-70
2022/01/08 06:31:56;;;;;;;12.38;7.25;;;;;;;1.92;89.07;100973.56;5025853;28;20025;-69
2022/01/08 06:34:22;;;;;;;13.77;7.43;;;;;;;1.97;88.75;100976.44;5027058;28;20028;-70
2022/01/08 06:36:48;;;;;;;12.13;7.32;;;;;;;1.76;89.11;100967.47;5028501;28;20450;-68
2022/01/08 06:39:15;;;;;;;10.48;6.60;;;;;;;1.89;88.86;100977.41;5025126;28;20186;-68
2022/01/08 06:41:40;;;;;;;10.75;6.65;;;;;;;1.93;88.88;100980.47;5024662;28;20291;-68
2022/01/08 06:44:06;;;;;;;13.38;7.22;;;;;;;1.96;88.74;100982.75;5039364;28;20387;-69
2022/01/08 06:46:31;;;;;;;13.02;7.05;;;;;;;1.92;88.78;100984.94;5025532;28;20090;-68
2022/01/08 06:48:57;;;;;;;11.48;7.00;;;;;;;1.98;88.28;100976.28;5028523;28;20041;-68
2022/01/08 06:51:22;;;;;;;11.65;6.95;;;;;;;2.01;88.33;100983.03;5026785;28;20434;-71
2022/01/08 06:53:48;;;;;;;12.77;7.13;;;;;;;2.02;88.08;100989.94;5023781;28;20022;-69
2022/01/08 06:56:13;;;;;;;12.98;7.47;;;;;;;2.01;88.17;100989.13;5025614;28;20060;-68
2022/01/08 06:58:41;;;;;;;18.40;8.90;;;;;;;2.01;88.03;100991.78;5019355;28;20069;-69
2022/01/08 07:01:06;;;;;;;12.23;7.47;;;;;;;2.05;88.07;100994.84;5022040;28;20025;-71
2022/01/08 07:03:32;;;;;;;13.95;7.22;;;;;;;1.97;87.96;100995.78;5022621;28;20032;-68
2022/01/08 07:05:57;;;;;;;13.93;7.90;;;;;;;1.97;87.79;100995.78;5022164;28;20033;-68
2022/01/08 07:08:23;;;;;;;9.68;6.10;;;;;;;1.83;87.71;100986.06;5023074;28;20087;-68
2022/01/08 07:10:49;;;;;;;10.00;6.88;;;;;;;1.88;87.68;100999.53;5024769;28;20025;-70
2022/01/08 07:13:14;;;;;;;9.43;5.72;;;;;;;1.79;87.89;100992.69;5021609;28;20121;-71
2022/01/08 07:15:40;;;;;;;9.65;5.97;;;;;;;1.68;87.54;100993.19;5024057;28;20049;-69
2022/01/08 07:18:05;;;;;;;12.82;5.15;;;;;;;1.71;87.59;101001.56;5022940;28;20464;-69
2022/01/08 07:20:31;;;;;;;9.95;5.82;;;;;;;1.69;87.93;100993.00;5022308;28;20061;-69
2022/01/08 07:22:56;;;;;;;10.25;5.57;;;;;;;1.80;87.81;101003.13;5021669;28;20064;-70
2022/01/08 07:25:22;;;;;;;11.98;6.55;;;;;;;1.79;87.55;100998.81;5022864;28;20025;-69
2022/01/08 07:27:47;;;;;;;9.27;5.60;;;;;;;1.80;87.52;100999.66;5024246;28;20041;-70
2022/01/08 07:30:13;;;;;;;10.05;5.28;;;;;;;1.76;87.53;101001.00;5038256;28;20026;-68
2022/01/08 07:32:52;;;;;;;8.75;5.40;;;;;;;1.70;87.42;100999.09;5021043;28;20487;-68
2022/01/08 07:35:21;;;;;;;11.57;4.90;;;;;;;1.59;87.42;101020.69;5019145;28;20025;-68
2022/01/08 07:37:49;;;;;;;11.00;5.57;;;;;;;1.64;87.65;101021.81;5021809;28;20530;-68
2022/01/08 07:40:16;;;;;;;10.77;5.43;;;;;;;1.58;87.63;101021.69;5017741;28;20546;-68
2022/01/08 07:42:41;;;;;;;8.77;5.20;;;;;;;1.61;87.86;101018.69;5030303;28;20040;-68
2022/01/08 07:45:08;;;;;;;11.15;5.82;;;;;;;1.52;88.23;101012.69;5019705;28;20033;-70
2022/01/08 07:47:34;;;;;;;11.50;6.43;;;;;;;1.45;88.09;101017.88;5036136;28;20491;-68
2022/01/08 07:50:00;;;;;;;9.88;6.45;;;;;;;1.59;88.20;101012.75;5038483;28;20052;-68
2022/01/08 07:52:25;;;;;;;12.65;5.57;;;;;;;1.49;88.07;101023.63;5021010;28;20112;-68
2022/01/08 07:54:51;;;;;;;15.20;6.68;;;;;;;1.54;88.29;101021.25;5023180;28;20017;-68
2022/01/08 07:57:17;;;;;;;10.93;5.75;;;;;;;1.50;88.20;101020.78;5023915;28;20056;-69
2022/01/08 07:59:42;;;;;;;13.75;6.72;;;;;;;1.54;87.94;101017.78;5024519;28;20064;-68
2022/01/08 08:02:11;;;;;;;9.70;6.10;;;;;;;1.49;87.89;101011.22;5021835;28;20029;-68
2022/01/08 08:04:37;;;;;;;13.38;6.63;;;;;;;1.54;88.09;101015.13;5022087;28;20029;-68
2022/01/08 08:07:03;;;;;;;8.38;5.88;;;;;;;1.50;88.05;101020.78;5018778;28;20037;-69
2022/01/08 08:09:29;;;;;;;10.70;6.40;;;;;;;1.52;87.52;101024.06;5016041;28;20025;-69
2022/01/08 08:11:55;;;;;;;13.10;6.13;;;;;;;1.49;87.80;101018.34;5020883;28;20032;-69
2022/01/08 08:14:20;;;;;;;11.52;6.15;;;;;;;1.45;88.10;101022.34;5016519;28;20026;-68
2022/01/08 08:16:46;;;;;;;10.15;5.82;;;;;;;1.54;88.10;101020.41;5019452;28;20029;-71
2022/01/08 08:19:11;;;;;;;14.13;6.50;;;;;;;1.48;88.22;101017.50;5019068;28;20025;-68
2022/01/08 08:21:37;;;;;;;9.30;6.28;;;;;;;1.54;87.86;101021.25;5022953;28;20021;-68
2022/01/08 08:24:05;;;;;;;13.07;6.15;;;;;;;1.54;87.89;101017.78;5020367;28;20108;-69
2022/01/08 08:26:32;;;;;;;11.50;6.70;;;;;;;1.56;87.76;101021.06;5021040;28;20064;-68
2022/01/08 08:28:57;;;;;;;10.75;6.25;;;;;;;1.56;87.74;101029.78;5021174;28;20026;-68
2022/01/08 08:31:23;;;;;;;11.52;6.65;;;;;;;1.54;87.76;101023.88;5022930;28;20032;-69
2022/01/08 08:33:48;;;;;;;9.40;5.57;;;;;;;1.64;87.63;101015.69;5017564;28;20029;-69
2022/01/08 08:36:14;;;;;;;10.73;6.35;;;;;;;1.53;87.23;101024.88;5020327;28;20266;-68
2022/01/08 08:38:39;;;;;;;11.82;7.15;;;;;;;1.63;87.55;101019.34;5019965;28;20049;-68
2022/01/08 08:41:05;;;;;;;14.38;6.97;;;;;;;1.73;87.22;101014.59;5017836;28;20113;-70
2022/01/08 08:43:30;;;;;;;10.32;6.57;;;;;;;1.70;86.98;101015.78;5037817;28;20049;-68
2022/01/08 08:45:56;;;;;;;8.55;5.47;;;;;;;1.68;86.52;101016.97;5020350;28;20030;-69
2022/01/08 08:48:22;;;;;;;10.30;6.07;;;;;;;1.60;86.63;101017.03;5017548;28;20043;-70
2022/01/08 08:50:47;;;;;;;10.50;6.30;;;;;;;1.54;86.60;101021.25;5020063;28;20631;-70
2022/01/08 08:53:13;;;;;;;11.15;5.75;;;;;;;1.54;86.83;101020.41;5018623;28;20017;-68
2022/01/08 08:55:38;;;;;;;11.43;5.75;;;;;;;1.51;86.99;101017.16;5022695;28;20029;-69
2022/01/08 08:58:04;;;;;;;10.00;5.93;;;;;;;1.55;86.72;101014.13;5017633;28;20058;-68
2022/01/08 09:00:30;;;;;;;9.88;5.65;;;;;;;1.57;86.73;101022.69;5020921;28;20060;-71
2022/01/08 09:02:55;;;;;;;10.07;5.65;;;;;;;1.56;86.50;101024.50;5021529;28;20064;-68
2022/01/08 09:05:21;;;;;;;12.73;6.00;;;;;;;1.56;86.47;101024.50;5021109;28;20022;-68
2022/01/08 09:07:47;;;;;;;8.70;5.50;;;;;;;1.50;86.49;101030.53;5018493;28;20570;-69
2022/01/08 09:10:12;;;;;;;11.18;6.28;;;;;;;1.54;86.50;101025.69;5016792;28;20038;-68
2022/01/08 09:12:39;;;;;;;10.95;6.55;;;;;;;1.51;86.09;101026.88;5032714;28;20033;-69
2022/01/08 09:15:08;;;;;;;12.20;6.25;;;;;;;1.49;86.13;101031.53;5018098;28;20033;-68
2022/01/08 09:17:36;;;;;;;13.75;6.78;;;;;;;1.47;86.16;101036.19;5014398;28;20052;-71
2022/01/08 09:20:03;;;;;;;12.00;6.47;;;;;;;1.45;86.22;101036.38;5031940;28;20037;-68
2022/01/08 09:22:29;;;;;;;10.30;6.03;;;;;;;1.50;86.19;101026.06;5009146;28;20025;-71
2022/01/08 09:24:56;;;;;;;11.68;6.55;;;;;;;1.70;86.09;101030.81;5018836;28;20056;-68
2022/01/08 09:27:23;;;;;;;11.18;5.95;;;;;;;1.64;85.73;101023.63;5014806;28;20476;-69
2022/01/08 09:29:49;;;;;;;11.65;6.15;;;;;;;1.73;85.84;101030.44;5019286;28;20021;-69
2022/01/08 09:32:14;;;;;;;9.20;5.82;;;;;;;1.74;85.78;101027.59;5020724;28;20112;-68
2022/01/08 09:34:40;;;;;;;11.30;5.90;;;;;;;1.77;85.40;101026.41;5020689;28;20116;-69
2022/01/08 09:37:06;;;;;;;11.35;6.18;;;;;;;1.73;85.43;101036.53;5020656;28;20025;-68
2022/01/08 09:39:32;;;;;;;9.93;5.78;;;;;;;1.73;85.51;101036.53;5015485;28;20121;-71
2022/01/08 09:41:58;;;;;;;12.60;6.78;;;;;;;1.74;85.60;101037.34;5018509;28;20033;-72
2022/01/08 09:44:24;;;;;;;14.05;6.20;;;;;;;1.71;85.59;101033.25;5016853;28;20067;-69
2022/01/08 09:46:49;;;;;;;9.63;6.30;;;;;;;1.71;85.53;101027.97;5019609;28;20041;-70
2022/01/08 09:49:15;;;;;;;12.27;6.45;;;;;;;1.72;85.50;101028.78;5021161;28;20087;-68
2022/01/08 09:51:41;;;;;;;12.20;5.82;;;;;;;1.75;85.44;101028.44;5018778;28;20037;-68
2022/01/08 09:54:06;;;;;;;10.32;5.75;;;;;;;1.81;84.95;101025.06;5022886;28;20224;-68
2022/01/08 09:56:32;;;;;;;17.20;6.32;;;;;;;1.75;84.90;101015.22;5022328;28;20037;-68
2022/01/08 09:59:00;;;;;;;12.90;6.22;;;;;;;1.77;84.83;101024.59;5022885;28;20030;-70
2022/01/08 10:01:31;;;;;;;13.45;6.90;;;;;;;1.82;84.85;101024.06;5023201;28;20029;-67
2022/01/08 10:03:59;;;;;;;10.18;6.20;;;;;;;1.90;84.96;100999.34;5023460;28;20040;-71
2022/01/08 10:06:27;;;;;;;9.00;6.00;;;;;;;1.94;84.96;100996.16;5023885;28;20041;-70
2022/01/08 10:08:53;;;;;;;10.02;6.25;;;;;;;1.97;84.34;100993.13;5021767;28;20038;-68
2022/01/08 10:11:22;;;;;;;12.32;6.40;;;;;;;2.11;84.33;100987.00;5024274;28;20580;-67
2022/01/08 10:13:58;;;;;;;9.88;6.03;;;;;;;2.00;83.10;100989.31;5021582;28;20021;-68
2022/01/08 10:19:23;;;;;;;9.35;5.30;;;;;;;2.23;83.26;100978.59;5022529;28;20075;-67
2022/01/08 10:21:49;;;;;;;11.88;5.22;;;;;;;2.25;82.62;100974.75;5037492;28;20025;-67
2022/01/08 10:24:22;;;;;;;9.88;5.55;;;;;;;2.28;81.95;100979.66;5024483;28;20025;-68
2022/01/08 10:26:51;;;;;;;11.00;6.20;;;;;;;2.40;82.20;100975.50;5017505;28;20032;-70
2022/01/08 10:29:19;;;;;;;8.82;5.38;;;;;;;2.51;81.66;100968.88;5036941;28;20654;-67
2022/01/08 10:31:52;;;;;;;8.32;5.53;;;;;;;2.47;81.03;100964.97;5037557;28;20031;-67
2022/01/08 10:34:19;;;;;;;12.98;5.78;;;;;;;2.53;80.83;100966.88;5024542;28;20033;-68
2022/01/08 10:36:54;;;;;;;8.80;4.93;;;;;;;2.40;80.31;100961.47;5020185;28;20033;-68
2022/01/08 10:39:36;;;;;;;8.65;5.60;;;;;;;2.47;81.04;100951.75;5023272;28;20033;-67
2022/01/08 10:42:09;;;;;;;10.68;5.88;;;;;;;2.50;80.99;100964.59;5022498;28;20041;-68
2022/01/08 10:44:34;;;;;;;7.70;4.95;;;;;;;2.62;81.39;100957.78;5021367;28;20029;-70
2022/01/08 10:47:07;;;;;;;8.90;5.22;;;;;;;2.48;79.81;100960.50;5038360;28;20094;-69
2022/01/08 10:49:39;;;;;;;9.70;5.53;;;;;;;2.57;80.22;100960.19;5040710;28;20033;-69
2022/01/08 10:52:06;;;;;;;7.15;4.78;;;;;;;2.59;79.98;100963.47;5026925;28;20040;-67
2022/01/08 10:54:36;;;;;;;9.52;4.88;;;;;;;2.67;80.30;100962.50;5025387;28;20387;-69
2022/01/08 10:57:06;;;;;;;12.32;6.03;;;;;;;2.69;80.28;100969.28;5020453;28;20136;-68
2022/01/08 10:59:32;;;;;;;11.07;7.72;;;;;;;2.76;80.72;100964.03;5021014;28;20101;-67
2022/01/08 11:02:08;;;;;;;13.63;6.07;;;;;;;2.84;80.14;100958.56;5026134;28;20133;-69
2022/01/08 11:04:39;;;;;;;12.07;7.03;;;;;;;2.88;80.35;100962.50;5018527;28;20024;-69
2022/01/08 11:07:05;;;;;;;10.15;6.45;;;;;;;2.91;80.45;100956.00;5022080;28;20065;-68
2022/01/08 11:09:32;;;;;;;14.50;7.78;;;;;;;2.98;80.31;100954.19;5023488;28;20027;-70
2022/01/08 11:12:00;;;;;;;16.25;7.03;;;;;;;2.98;80.00;100962.13;5019238;28;20033;-70
2022/01/08 11:17:25;;;;;;;13.57;7.72;;;;;;;2.86;80.09;100958.38;5025721;28;20024;-68
2022/01/08 11:19:53;;;;;;;17.13;8.70;;;;;;;2.90;80.60;100960.47;5014100;28;20048;-68
2022/01/08 11:22:23;;;;;;;12.00;7.03;;;;;;;3.03;80.84;100965.03;5017676;28;20029;-67
2022/01/08 11:24:52;;;;;;;16.25;7.82;;;;;;;3.16;80.50;100964.31;5030612;28;20184;-69
2022/01/08 11:27:32;;;;;;;15.10;8.25;;;;;;;3.23;80.15;100954.56;5020756;28;20069;-68
2022/01/08 11:30:10;;;;;;;13.45;7.60;;;;;;;3.23;79.96;100950.09;5019727;28;20077;-68
2022/01/08 11:32:37;;;;;;;14.07;8.07;;;;;;;3.19;79.93;100948.84;5014892;28;20113;-70
2022/01/08 11:35:05;;;;;;;14.63;7.88;;;;;;;3.17;80.41;100950.88;5033122;28;20090;-68
2022/01/08 11:37:31;;;;;;;13.15;7.18;;;;;;;3.10;80.41;100955.31;5021390;28;20033;-69
2022/01/08 11:40:02;;;;;;;15.25;7.30;;;;;;;3.12;80.70;100948.00;5015704;28;20638;-68
2022/01/08 11:42:28;;;;;;;13.43;7.60;;;;;;;3.16;80.59;100951.88;5022513;28;20037;-71
2022/01/08 11:44:55;;;;;;;12.00;7.38;;;;;;;3.25;80.79;100948.09;5022849;28;20030;-69
2022/01/08 11:47:22;;;;;;;13.00;7.60;;;;;;;3.22;80.75;100952.91;5027255;28;20403;-71
2022/01/08 11:49:49;;;;;;;13.88;7.57;;;;;;;3.01;79.48;100948.50;5019297;28;20033;-69